sensor_id;sensor_type;location;lat;lon;timestamp;P1;durP1;ratioP1;P2;durP2;ratioP2
40204;SDS011;26963;42.666;23.366;2023-05-10T00:00:33;8.30;;;6.47;;
40204;SDS011;26963;42.666;23.366;2023-05-10T00:02:59;6.70;;;5.93;;
40204;SDS011;26963;42.666;23.366;2023-05-10T00:05:25;5.82;;;5.22;;
40204;SDS011;26963;42.666;23.366;2023-05-10T00:07:50;7.10;;;6.40;;
40204;SDS011;26963;42.666;23.366;2023-05-10T00:10:16;7.45;;;6.68;;
40204;SDS011;26963;42.666;23.366;2023-05-10T00:12:41;7.50;;;6.75;;
40204;SDS011;26963;42.666;23.366;2023-05-10T00:15:07;9.93;;;7.78;;
40204;SDS011;26963;42.666;23.366;2023-05-10T00:17:33;7.60;;;6.90;;
40204;SDS011;26963;42.666;23.366;2023-05-10T00:19:59;7.43;;;6.63;;
40204;SDS011;26963;42.666;23.366;2023-05-10T00:22:25;7.90;;;7.15;;
40204;SDS011;26963;42.666;23.366;2023-05-10T00:24:51;7.90;;;7.10;;
40204;SDS011;26963;42.666;23.366;2023-05-10T00:27:16;7.82;;;6.38;;
40204;SDS011;26963;42.666;23.366;2023-05-10T00:29:42;9.90;;;8.23;;
40204;SDS011;26963;42.666;23.366;2023-05-10T00:32:08;9.95;;;8.77;;
40204;SDS011;26963;42.666;23.366;2023-05-10T00:34:33;11.27;;;8.82;;
40204;SDS011;26963;42.666;23.366;2023-05-10T00:36:59;9.15;;;8.23;;
40204;SDS011;26963;42.666;23.366;2023-05-10T00:39:25;8.43;;;7.63;;
40204;SDS011;26963;42.666;23.366;2023-05-10T00:41:51;9.60;;;8.55;;
40204;SDS011;26963;42.666;23.366;2023-05-10T00:44:17;10.32;;;8.55;;
40204;SDS011;26963;42.666;23.366;2023-05-10T00:46:43;9.90;;;9.00;;
40204;SDS011;26963;42.666;23.366;2023-05-10T00:49:10;10.13;;;9.13;;
40204;SDS011;26963;42.666;23.366;2023-05-10T00:51:36;9.90;;;8.93;;
40204;SDS011;26963;42.666;23.366;2023-05-10T00:54:02;9.40;;;8.50;;
40204;SDS011;26963;42.666;23.366;2023-05-10T00:56:28;9.73;;;8.82;;
40204;SDS011;26963;42.666;23.366;2023-05-10T00:58:55;10.45;;;9.45;;
40204;SDS011;26963;42.666;23.366;2023-05-10T01:01:21;9.98;;;8.98;;
40204;SDS011;26963;42.666;23.366;2023-05-10T01:03:47;9.82;;;8.77;;
40204;SDS011;26963;42.666;23.366;2023-05-10T01:06:13;9.00;;;7.95;;
40204;SDS011;26963;42.666;23.366;2023-05-10T01:08:39;9.95;;;8.95;;
40204;SDS011;26963;42.666;23.366;2023-05-10T01:11:05;10.40;;;9.40;;
40204;SDS011;26963;42.666;23.366;2023-05-10T01:13:35;9.75;;;8.82;;
40204;SDS011;26963;42.666;23.366;2023-05-10T01:16:03;7.68;;;6.97;;
40204;SDS011;26963;42.666;23.366;2023-05-10T01:18:30;7.43;;;6.68;;
40204;SDS011;26963;42.666;23.366;2023-05-10T01:21:04;6.82;;;6.13;;
40204;SDS011;26963;42.666;23.366;2023-05-10T01:23:36;7.97;;;7.15;;
40204;SDS011;26963;42.666;23.366;2023-05-10T01:37:42;6.05;;;5.45;;
40204;SDS011;26963;42.666;23.366;2023-05-10T01:42:50;7.85;;;6.32;;
40204;SDS011;26963;42.666;23.366;2023-05-10T01:45:27;10.57;;;8.48;;
40204;SDS011;26963;42.666;23.366;2023-05-10T01:50:34;7.55;;;6.75;;
40204;SDS011;26963;42.666;23.366;2023-05-10T01:53:02;7.13;;;6.43;;
40204;SDS011;26963;42.666;23.366;2023-05-10T01:55:33;6.57;;;5.30;;
40204;SDS011;26963;42.666;23.366;2023-05-10T01:58:07;7.53;;;5.78;;
40204;SDS011;26963;42.666;23.366;2023-05-10T02:00:36;6.70;;;6.10;;
40204;SDS011;26963;42.666;23.366;2023-05-10T02:03:07;6.50;;;5.80;;
40204;SDS011;26963;42.666;23.366;2023-05-10T02:05:34;5.45;;;4.65;;
40204;SDS011;26963;42.666;23.366;2023-05-10T02:08:01;5.13;;;4.55;;
40204;SDS011;26963;42.666;23.366;2023-05-10T02:10:30;5.05;;;4.40;;
40204;SDS011;26963;42.666;23.366;2023-05-10T02:12:58;6.05;;;5.22;;
40204;SDS011;26963;42.666;23.366;2023-05-10T02:15:25;5.60;;;4.60;;
40204;SDS011;26963;42.666;23.366;2023-05-10T02:17:52;5.20;;;4.65;;
40204;SDS011;26963;42.666;23.366;2023-05-10T02:20:20;5.78;;;4.55;;
40204;SDS011;26963;42.666;23.366;2023-05-10T02:22:47;6.50;;;4.70;;
40204;SDS011;26963;42.666;23.366;2023-05-10T02:25:16;9.32;;;5.50;;
40204;SDS011;26963;42.666;23.366;2023-05-10T02:27:44;5.80;;;4.90;;
40204;SDS011;26963;42.666;23.366;2023-05-10T02:30:12;6.47;;;5.07;;
40204;SDS011;26963;42.666;23.366;2023-05-10T02:32:39;5.93;;;4.78;;
40204;SDS011;26963;42.666;23.366;2023-05-10T02:35:06;6.70;;;4.35;;
40204;SDS011;26963;42.666;23.366;2023-05-10T02:37:33;9.77;;;5.07;;
40204;SDS011;26963;42.666;23.366;2023-05-10T02:40:00;6.70;;;5.03;;
40204;SDS011;26963;42.666;23.366;2023-05-10T02:42:29;6.57;;;4.75;;
40204;SDS011;26963;42.666;23.366;2023-05-10T02:44:59;8.23;;;5.18;;
40204;SDS011;26963;42.666;23.366;2023-05-10T02:47:27;5.68;;;4.32;;
40204;SDS011;26963;42.666;23.366;2023-05-10T02:49:56;7.97;;;4.93;;
40204;SDS011;26963;42.666;23.366;2023-05-10T02:52:25;7.30;;;4.97;;
40204;SDS011;26963;42.666;23.366;2023-05-10T02:54:55;6.32;;;5.25;;
40204;SDS011;26963;42.666;23.366;2023-05-10T02:57:30;6.93;;;4.97;;
40204;SDS011;26963;42.666;23.366;2023-05-10T02:59:58;6.85;;;5.20;;
40204;SDS011;26963;42.666;23.366;2023-05-10T03:02:25;6.18;;;5.07;;
40204;SDS011;26963;42.666;23.366;2023-05-10T03:04:51;5.38;;;4.38;;
40204;SDS011;26963;42.666;23.366;2023-05-10T03:07:17;6.22;;;4.65;;
40204;SDS011;26963;42.666;23.366;2023-05-10T03:09:46;5.53;;;4.65;;
40204;SDS011;26963;42.666;23.366;2023-05-10T03:15:03;8.65;;;5.00;;
40204;SDS011;26963;42.666;23.366;2023-05-10T03:20:10;8.00;;;4.97;;
40204;SDS011;26963;42.666;23.366;2023-05-10T03:22:44;6.30;;;5.18;;
40204;SDS011;26963;42.666;23.366;2023-05-10T03:25:12;6.38;;;4.85;;
40204;SDS011;26963;42.666;23.366;2023-05-10T03:27:42;5.82;;;5.07;;
40204;SDS011;26963;42.666;23.366;2023-05-10T03:30:12;7.82;;;5.07;;
40204;SDS011;26963;42.666;23.366;2023-05-10T03:32:39;8.35;;;5.45;;
40204;SDS011;26963;42.666;23.366;2023-05-10T03:35:08;7.65;;;5.18;;
40204;SDS011;26963;42.666;23.366;2023-05-10T03:37:34;9.07;;;5.60;;
40204;SDS011;26963;42.666;23.366;2023-05-10T03:40:00;7.82;;;5.32;;
40204;SDS011;26963;42.666;23.366;2023-05-10T03:42:26;7.18;;;5.72;;
40204;SDS011;26963;42.666;23.366;2023-05-10T03:44:53;8.40;;;5.53;;
40204;SDS011;26963;42.666;23.366;2023-05-10T03:47:18;9.32;;;5.43;;
40204;SDS011;26963;42.666;23.366;2023-05-10T03:49:44;6.45;;;4.72;;
40204;SDS011;26963;42.666;23.366;2023-05-10T03:52:09;9.10;;;5.40;;
40204;SDS011;26963;42.666;23.366;2023-05-10T03:54:35;6.18;;;5.30;;
40204;SDS011;26963;42.666;23.366;2023-05-10T03:57:00;7.60;;;4.93;;
40204;SDS011;26963;42.666;23.366;2023-05-10T03:59:26;5.80;;;4.95;;
40204;SDS011;26963;42.666;23.366;2023-05-10T04:01:51;7.38;;;5.38;;
40204;SDS011;26963;42.666;23.366;2023-05-10T04:04:17;8.13;;;6.13;;
40204;SDS011;26963;42.666;23.366;2023-05-10T04:06:43;10.20;;;8.45;;
40204;SDS011;26963;42.666;23.366;2023-05-10T04:09:10;10.20;;;8.43;;
40204;SDS011;26963;42.666;23.366;2023-05-10T04:11:35;9.80;;;8.80;;
40204;SDS011;26963;42.666;23.366;2023-05-10T04:14:01;6.97;;;6.13;;
40204;SDS011;26963;42.666;23.366;2023-05-10T04:16:30;8.23;;;5.95;;
40204;SDS011;26963;42.666;23.366;2023-05-10T04:18:55;9.63;;;6.57;;
40204;SDS011;26963;42.666;23.366;2023-05-10T04:21:21;6.22;;;5.30;;
40204;SDS011;26963;42.666;23.366;2023-05-10T04:23:47;7.90;;;5.63;;
40204;SDS011;26963;42.666;23.366;2023-05-10T04:26:12;9.77;;;5.97;;
40204;SDS011;26963;42.666;23.366;2023-05-10T04:28:38;10.65;;;8.75;;
40204;SDS011;26963;42.666;23.366;2023-05-10T04:31:04;8.18;;;5.88;;
40204;SDS011;26963;42.666;23.366;2023-05-10T04:33:32;6.93;;;5.72;;
40204;SDS011;26963;42.666;23.366;2023-05-10T04:35:58;6.93;;;5.32;;
40204;SDS011;26963;42.666;23.366;2023-05-10T04:38:23;8.48;;;6.05;;
40204;SDS011;26963;42.666;23.366;2023-05-10T04:40:49;12.80;;;5.85;;
40204;SDS011;26963;42.666;23.366;2023-05-10T04:43:15;7.50;;;5.75;;
40204;SDS011;26963;42.666;23.366;2023-05-10T04:45:40;6.40;;;5.65;;
40204;SDS011;26963;42.666;23.366;2023-05-10T04:48:06;7.88;;;6.10;;
40204;SDS011;26963;42.666;23.366;2023-05-10T04:50:32;7.15;;;5.45;;
40204;SDS011;26963;42.666;23.366;2023-05-10T04:52:58;8.93;;;6.03;;
40204;SDS011;26963;42.666;23.366;2023-05-10T04:55:24;7.25;;;5.65;;
40204;SDS011;26963;42.666;23.366;2023-05-10T04:57:50;9.80;;;6.32;;
40204;SDS011;26963;42.666;23.366;2023-05-10T05:00:15;9.68;;;6.65;;
40204;SDS011;26963;42.666;23.366;2023-05-10T05:02:42;8.02;;;6.20;;
40204;SDS011;26963;42.666;23.366;2023-05-10T05:05:09;11.73;;;8.00;;
40204;SDS011;26963;42.666;23.366;2023-05-10T05:07:35;10.40;;;6.70;;
40204;SDS011;26963;42.666;23.366;2023-05-10T05:10:00;7.82;;;6.75;;
40204;SDS011;26963;42.666;23.366;2023-05-10T05:12:26;8.63;;;5.80;;
40204;SDS011;26963;42.666;23.366;2023-05-10T05:14:51;7.10;;;5.95;;
40204;SDS011;26963;42.666;23.366;2023-05-10T05:17:17;8.48;;;6.47;;
40204;SDS011;26963;42.666;23.366;2023-05-10T05:19:42;8.15;;;6.47;;
40204;SDS011;26963;42.666;23.366;2023-05-10T05:22:08;8.52;;;6.82;;
40204;SDS011;26963;42.666;23.366;2023-05-10T05:24:36;8.48;;;6.70;;
40204;SDS011;26963;42.666;23.366;2023-05-10T05:27:03;7.63;;;6.75;;
40204;SDS011;26963;42.666;23.366;2023-05-10T05:29:29;9.57;;;7.47;;
40204;SDS011;26963;42.666;23.366;2023-05-10T05:31:54;10.25;;;7.13;;
40204;SDS011;26963;42.666;23.366;2023-05-10T05:34:20;9.55;;;7.80;;
40204;SDS011;26963;42.666;23.366;2023-05-10T05:36:47;9.27;;;7.68;;
40204;SDS011;26963;42.666;23.366;2023-05-10T05:39:13;9.00;;;7.00;;
40204;SDS011;26963;42.666;23.366;2023-05-10T05:41:38;9.23;;;7.13;;
40204;SDS011;26963;42.666;23.366;2023-05-10T05:44:04;8.93;;;7.07;;
40204;SDS011;26963;42.666;23.366;2023-05-10T05:46:29;9.70;;;7.57;;
40204;SDS011;26963;42.666;23.366;2023-05-10T05:48:55;9.63;;;7.72;;
40204;SDS011;26963;42.666;23.366;2023-05-10T05:51:21;9.35;;;8.13;;
40204;SDS011;26963;42.666;23.366;2023-05-10T05:53:46;10.27;;;7.80;;
40204;SDS011;26963;42.666;23.366;2023-05-10T05:56:15;10.10;;;8.25;;
40204;SDS011;26963;42.666;23.366;2023-05-10T05:58:40;12.13;;;9.70;;
40204;SDS011;26963;42.666;23.366;2023-05-10T06:01:06;9.00;;;8.10;;
40204;SDS011;26963;42.666;23.366;2023-05-10T06:03:32;12.45;;;8.07;;
40204;SDS011;26963;42.666;23.366;2023-05-10T06:05:58;9.38;;;7.72;;
40204;SDS011;26963;42.666;23.366;2023-05-10T06:08:23;9.57;;;8.38;;
40204;SDS011;26963;42.666;23.366;2023-05-10T06:10:49;10.25;;;8.30;;
40204;SDS011;26963;42.666;23.366;2023-05-10T06:13:14;11.65;;;7.97;;
40204;SDS011;26963;42.666;23.366;2023-05-10T06:15:40;10.82;;;7.72;;
40204;SDS011;26963;42.666;23.366;2023-05-10T06:18:06;9.88;;;8.32;;
40204;SDS011;26963;42.666;23.366;2023-05-10T06:20:31;9.88;;;7.88;;
40204;SDS011;26963;42.666;23.366;2023-05-10T06:23:00;9.98;;;7.57;;
40204;SDS011;26963;42.666;23.366;2023-05-10T06:25:25;10.15;;;7.55;;
40204;SDS011;26963;42.666;23.366;2023-05-10T06:27:51;9.00;;;7.78;;
40204;SDS011;26963;42.666;23.366;2023-05-10T06:30:22;10.30;;;7.50;;
40204;SDS011;26963;42.666;23.366;2023-05-10T06:32:55;8.77;;;7.18;;
40204;SDS011;26963;42.666;23.366;2023-05-10T06:35:20;8.10;;;7.30;;
40204;SDS011;26963;42.666;23.366;2023-05-10T06:37:46;11.60;;;7.65;;
40204;SDS011;26963;42.666;23.366;2023-05-10T06:40:12;14.23;;;7.38;;
40204;SDS011;26963;42.666;23.366;2023-05-10T06:42:37;9.48;;;7.10;;
40204;SDS011;26963;42.666;23.366;2023-05-10T06:45:03;9.85;;;7.43;;
40204;SDS011;26963;42.666;23.366;2023-05-10T06:47:29;11.30;;;7.53;;
40204;SDS011;26963;42.666;23.366;2023-05-10T06:49:54;12.25;;;7.55;;
40204;SDS011;26963;42.666;23.366;2023-05-10T06:52:20;10.55;;;8.02;;
40204;SDS011;26963;42.666;23.366;2023-05-10T06:54:46;9.82;;;7.10;;
40204;SDS011;26963;42.666;23.366;2023-05-10T06:57:11;9.30;;;7.00;;
40204;SDS011;26963;42.666;23.366;2023-05-10T06:59:37;8.07;;;6.28;;
40204;SDS011;26963;42.666;23.366;2023-05-10T07:02:03;11.52;;;6.47;;
40204;SDS011;26963;42.666;23.366;2023-05-10T07:04:28;9.07;;;6.72;;
40204;SDS011;26963;42.666;23.366;2023-05-10T07:06:54;9.60;;;6.78;;
40204;SDS011;26963;42.666;23.366;2023-05-10T07:09:19;7.38;;;6.57;;
40204;SDS011;26963;42.666;23.366;2023-05-10T07:11:45;10.38;;;6.95;;
40204;SDS011;26963;42.666;23.366;2023-05-10T07:14:11;9.50;;;7.05;;
40204;SDS011;26963;42.666;23.366;2023-05-10T07:16:36;12.57;;;6.80;;
40204;SDS011;26963;42.666;23.366;2023-05-10T07:19:02;8.25;;;6.80;;
40204;SDS011;26963;42.666;23.366;2023-05-10T07:21:31;8.27;;;7.15;;
40204;SDS011;26963;42.666;23.366;2023-05-10T07:23:57;9.27;;;6.90;;
40204;SDS011;26963;42.666;23.366;2023-05-10T07:26:25;9.70;;;6.90;;
40204;SDS011;26963;42.666;23.366;2023-05-10T07:28:51;13.38;;;8.63;;
40204;SDS011;26963;42.666;23.366;2023-05-10T07:31:16;11.73;;;7.18;;
40204;SDS011;26963;42.666;23.366;2023-05-10T07:33:42;13.90;;;7.80;;
40204;SDS011;26963;42.666;23.366;2023-05-10T07:36:08;9.15;;;7.72;;
40204;SDS011;26963;42.666;23.366;2023-05-10T07:38:33;9.02;;;7.57;;
40204;SDS011;26963;42.666;23.366;2023-05-10T07:40:59;10.68;;;8.70;;
40204;SDS011;26963;42.666;23.366;2023-05-10T07:43:24;10.82;;;8.20;;
40204;SDS011;26963;42.666;23.366;2023-05-10T07:45:50;10.52;;;8.75;;
40204;SDS011;26963;42.666;23.366;2023-05-10T07:48:15;11.68;;;8.07;;
40204;SDS011;26963;42.666;23.366;2023-05-10T07:50:41;13.55;;;8.77;;
40204;SDS011;26963;42.666;23.366;2023-05-10T07:53:06;10.18;;;9.13;;
40204;SDS011;26963;42.666;23.366;2023-05-10T07:55:32;10.75;;;9.63;;
40204;SDS011;26963;42.666;23.366;2023-05-10T07:57:58;13.20;;;8.82;;
40204;SDS011;26963;42.666;23.366;2023-05-10T08:00:26;13.05;;;8.23;;
40204;SDS011;26963;42.666;23.366;2023-05-10T08:02:51;12.35;;;8.07;;
40204;SDS011;26963;42.666;23.366;2023-05-10T08:05:18;9.02;;;8.00;;
40204;SDS011;26963;42.666;23.366;2023-05-10T08:07:43;11.50;;;7.90;;
40204;SDS011;26963;42.666;23.366;2023-05-10T08:10:09;9.32;;;8.07;;
40204;SDS011;26963;42.666;23.366;2023-05-10T08:12:36;8.55;;;7.75;;
40204;SDS011;26963;42.666;23.366;2023-05-10T08:15:01;9.82;;;7.57;;
40204;SDS011;26963;42.666;23.366;2023-05-10T08:17:28;11.27;;;7.28;;
40204;SDS011;26963;42.666;23.366;2023-05-10T08:19:53;12.02;;;8.45;;
40204;SDS011;26963;42.666;23.366;2023-05-10T08:22:19;9.50;;;7.75;;
40204;SDS011;26963;42.666;23.366;2023-05-10T08:24:44;8.35;;;7.47;;
40204;SDS011;26963;42.666;23.366;2023-05-10T08:27:10;8.73;;;7.65;;
40204;SDS011;26963;42.666;23.366;2023-05-10T08:29:36;9.68;;;7.80;;
40204;SDS011;26963;42.666;23.366;2023-05-10T08:32:03;11.35;;;8.18;;
40204;SDS011;26963;42.666;23.366;2023-05-10T08:34:29;8.68;;;7.20;;
40204;SDS011;26963;42.666;23.366;2023-05-10T08:37:01;9.70;;;8.02;;
40204;SDS011;26963;42.666;23.366;2023-05-10T08:39:29;11.57;;;8.27;;
40204;SDS011;26963;42.666;23.366;2023-05-10T08:42:07;11.85;;;7.43;;
40204;SDS011;26963;42.666;23.366;2023-05-10T08:44:35;10.05;;;7.68;;
40204;SDS011;26963;42.666;23.366;2023-05-10T08:47:05;12.25;;;8.18;;
40204;SDS011;26963;42.666;23.366;2023-05-10T08:49:32;9.52;;;8.20;;
40204;SDS011;26963;42.666;23.366;2023-05-10T08:51:59;10.57;;;8.15;;
40204;SDS011;26963;42.666;23.366;2023-05-10T08:54:29;10.23;;;9.00;;
40204;SDS011;26963;42.666;23.366;2023-05-10T08:56:56;11.45;;;8.75;;
40204;SDS011;26963;42.666;23.366;2023-05-10T08:59:22;11.02;;;9.93;;
40204;SDS011;26963;42.666;23.366;2023-05-10T09:01:47;10.88;;;8.77;;
40204;SDS011;26963;42.666;23.366;2023-05-10T09:04:14;9.70;;;8.70;;
40204;SDS011;26963;42.666;23.366;2023-05-10T09:06:40;11.30;;;8.60;;
40204;SDS011;26963;42.666;23.366;2023-05-10T09:09:06;9.43;;;8.52;;
40204;SDS011;26963;42.666;23.366;2023-05-10T09:11:32;9.85;;;8.85;;
40204;SDS011;26963;42.666;23.366;2023-05-10T09:14:03;9.57;;;7.43;;
40204;SDS011;26963;42.666;23.366;2023-05-10T09:16:32;8.38;;;7.50;;
40204;SDS011;26963;42.666;23.366;2023-05-10T09:19:01;10.98;;;9.00;;
40204;SDS011;26963;42.666;23.366;2023-05-10T09:21:30;11.20;;;9.25;;
40204;SDS011;26963;42.666;23.366;2023-05-10T09:23:56;11.85;;;10.23;;
40204;SDS011;26963;42.666;23.366;2023-05-10T09:26:22;11.35;;;10.13;;
40204;SDS011;26963;42.666;23.366;2023-05-10T09:28:55;10.55;;;9.23;;
40204;SDS011;26963;42.666;23.366;2023-05-10T09:31:23;10.30;;;8.68;;
40204;SDS011;26963;42.666;23.366;2023-05-10T09:33:52;11.68;;;9.02;;
40204;SDS011;26963;42.666;23.366;2023-05-10T09:36:18;9.55;;;8.63;;
40204;SDS011;26963;42.666;23.366;2023-05-10T09:38:50;11.15;;;9.88;;
40204;SDS011;26963;42.666;23.366;2023-05-10T09:41:17;10.57;;;9.48;;
40204;SDS011;26963;42.666;23.366;2023-05-10T09:43:44;10.93;;;8.88;;
40204;SDS011;26963;42.666;23.366;2023-05-10T09:46:09;9.38;;;8.35;;
40204;SDS011;26963;42.666;23.366;2023-05-10T09:48:41;9.75;;;8.60;;
40204;SDS011;26963;42.666;23.366;2023-05-10T09:51:09;9.82;;;8.00;;
40204;SDS011;26963;42.666;23.366;2023-05-10T09:53:35;9.95;;;8.95;;
40204;SDS011;26963;42.666;23.366;2023-05-10T09:56:00;9.57;;;8.63;;
40204;SDS011;26963;42.666;23.366;2023-05-10T09:58:26;13.32;;;9.70;;
40204;SDS011;26963;42.666;23.366;2023-05-10T10:00:52;13.07;;;9.07;;
40204;SDS011;26963;42.666;23.366;2023-05-10T10:03:21;13.30;;;9.25;;
40204;SDS011;26963;42.666;23.366;2023-05-10T10:05:48;10.50;;;8.63;;
40204;SDS011;26963;42.666;23.366;2023-05-10T10:08:14;9.20;;;8.30;;
40204;SDS011;26963;42.666;23.366;2023-05-10T10:10:41;10.65;;;9.00;;
40204;SDS011;26963;42.666;23.366;2023-05-10T10:13:07;9.98;;;8.25;;
40204;SDS011;26963;42.666;23.366;2023-05-10T10:15:33;11.15;;;8.65;;
40204;SDS011;26963;42.666;23.366;2023-05-10T10:17:59;10.13;;;8.80;;
40204;SDS011;26963;42.666;23.366;2023-05-10T10:20:25;10.55;;;8.85;;
40204;SDS011;26963;42.666;23.366;2023-05-10T10:22:51;15.93;;;10.13;;
40204;SDS011;26963;42.666;23.366;2023-05-10T10:25:18;9.60;;;8.70;;
40204;SDS011;26963;42.666;23.366;2023-05-10T10:28:06;10.27;;;8.30;;
40204;SDS011;26963;42.666;23.366;2023-05-10T10:35:31;11.30;;;8.57;;
40204;SDS011;26963;42.666;23.366;2023-05-10T10:38:01;9.35;;;6.95;;
40204;SDS011;26963;42.666;23.366;2023-05-10T10:40:27;7.05;;;6.35;;
40204;SDS011;26963;42.666;23.366;2023-05-10T10:42:57;8.00;;;7.00;;
40204;SDS011;26963;42.666;23.366;2023-05-10T10:45:41;13.40;;;7.63;;
40204;SDS011;26963;42.666;23.366;2023-05-10T10:48:28;10.50;;;6.40;;
40204;SDS011;26963;42.666;23.366;2023-05-10T10:50:56;9.70;;;6.78;;
40204;SDS011;26963;42.666;23.366;2023-05-10T10:53:25;8.20;;;6.20;;
40204;SDS011;26963;42.666;23.366;2023-05-10T10:56:08;7.60;;;6.82;;
40204;SDS011;26963;42.666;23.366;2023-05-10T10:58:36;8.23;;;6.32;;
40204;SDS011;26963;42.666;23.366;2023-05-10T11:01:16;7.30;;;6.28;;
40204;SDS011;26963;42.666;23.366;2023-05-10T11:06:33;8.23;;;5.95;;
40204;SDS011;26963;42.666;23.366;2023-05-10T11:09:07;8.45;;;6.88;;
40204;SDS011;26963;42.666;23.366;2023-05-10T11:11:34;8.90;;;6.00;;
40204;SDS011;26963;42.666;23.366;2023-05-10T11:14:04;8.18;;;6.30;;
40204;SDS011;26963;42.666;23.366;2023-05-10T11:16:43;11.05;;;7.20;;
40204;SDS011;26963;42.666;23.366;2023-05-10T11:19:10;8.32;;;6.63;;
40204;SDS011;26963;42.666;23.366;2023-05-10T11:21:50;10.95;;;8.25;;
40204;SDS011;26963;42.666;23.366;2023-05-10T11:24:36;8.88;;;6.18;;
40204;SDS011;26963;42.666;23.366;2023-05-10T11:27:02;9.68;;;6.80;;
40204;SDS011;26963;42.666;23.366;2023-05-10T11:29:28;7.95;;;6.22;;
40204;SDS011;26963;42.666;23.366;2023-05-10T11:31:53;10.60;;;6.72;;
40204;SDS011;26963;42.666;23.366;2023-05-10T11:34:30;8.23;;;6.38;;
40204;SDS011;26963;42.666;23.366;2023-05-10T11:36:59;10.27;;;6.63;;
40204;SDS011;26963;42.666;23.366;2023-05-10T11:39:26;12.30;;;6.97;;
40204;SDS011;26963;42.666;23.366;2023-05-10T11:41:53;9.20;;;7.38;;
40204;SDS011;26963;42.666;23.366;2023-05-10T11:44:19;7.95;;;6.30;;
40204;SDS011;26963;42.666;23.366;2023-05-10T11:46:45;8.55;;;6.25;;
40204;SDS011;26963;42.666;23.366;2023-05-10T11:49:10;9.20;;;6.60;;
40204;SDS011;26963;42.666;23.366;2023-05-10T11:51:38;10.88;;;6.80;;
40204;SDS011;26963;42.666;23.366;2023-05-10T11:54:09;9.73;;;6.78;;
40204;SDS011;26963;42.666;23.366;2023-05-10T11:56:36;8.07;;;6.80;;
40204;SDS011;26963;42.666;23.366;2023-05-10T11:59:03;10.88;;;6.78;;
40204;SDS011;26963;42.666;23.366;2023-05-10T12:01:30;10.70;;;7.05;;
40204;SDS011;26963;42.666;23.366;2023-05-10T12:03:56;10.95;;;7.50;;
40204;SDS011;26963;42.666;23.366;2023-05-10T12:06:26;8.27;;;7.03;;
40204;SDS011;26963;42.666;23.366;2023-05-10T12:08:54;8.50;;;7.07;;
40204;SDS011;26963;42.666;23.366;2023-05-10T12:11:19;10.82;;;7.63;;
40204;SDS011;26963;42.666;23.366;2023-05-10T12:13:47;10.70;;;7.28;;
40204;SDS011;26963;42.666;23.366;2023-05-10T12:16:15;10.10;;;7.75;;
40204;SDS011;26963;42.666;23.366;2023-05-10T12:18:42;9.23;;;8.27;;
40204;SDS011;26963;42.666;23.366;2023-05-10T12:21:09;13.30;;;7.63;;
40204;SDS011;26963;42.666;23.366;2023-05-10T12:23:38;9.77;;;8.35;;
40204;SDS011;26963;42.666;23.366;2023-05-10T12:26:04;11.07;;;7.60;;
40204;SDS011;26963;42.666;23.366;2023-05-10T12:28:31;9.38;;;7.80;;
40204;SDS011;26963;42.666;23.366;2023-05-10T12:30:58;10.55;;;7.78;;
40204;SDS011;26963;42.666;23.366;2023-05-10T12:33:25;10.02;;;8.63;;
40204;SDS011;26963;42.666;23.366;2023-05-10T12:35:51;9.93;;;8.05;;
40204;SDS011;26963;42.666;23.366;2023-05-10T12:38:29;7.32;;;6.63;;
40204;SDS011;26963;42.666;23.366;2023-05-10T12:40:57;9.40;;;7.97;;
40204;SDS011;26963;42.666;23.366;2023-05-10T12:43:30;11.93;;;7.82;;
40204;SDS011;26963;42.666;23.366;2023-05-10T12:45:56;8.73;;;7.47;;
40204;SDS011;26963;42.666;23.366;2023-05-10T12:48:22;8.45;;;6.80;;
40204;SDS011;26963;42.666;23.366;2023-05-10T12:50:47;8.38;;;7.10;;
40204;SDS011;26963;42.666;23.366;2023-05-10T12:53:14;9.98;;;7.05;;
40204;SDS011;26963;42.666;23.366;2023-05-10T12:55:41;9.20;;;6.75;;
40204;SDS011;26963;42.666;23.366;2023-05-10T12:58:07;8.80;;;6.65;;
40204;SDS011;26963;42.666;23.366;2023-05-10T13:00:32;10.02;;;7.28;;
40204;SDS011;26963;42.666;23.366;2023-05-10T13:02:58;9.90;;;6.60;;
40204;SDS011;26963;42.666;23.366;2023-05-10T13:05:24;10.93;;;6.68;;
40204;SDS011;26963;42.666;23.366;2023-05-10T13:07:49;7.47;;;6.38;;
40204;SDS011;26963;42.666;23.366;2023-05-10T13:10:15;11.80;;;6.93;;
40204;SDS011;26963;42.666;23.366;2023-05-10T13:12:41;10.57;;;7.78;;
40204;SDS011;26963;42.666;23.366;2023-05-10T13:15:07;8.05;;;6.97;;
40204;SDS011;26963;42.666;23.366;2023-05-10T13:17:32;10.50;;;6.88;;
40204;SDS011;26963;42.666;23.366;2023-05-10T13:19:58;8.30;;;5.85;;
40204;SDS011;26963;42.666;23.366;2023-05-10T13:22:23;9.63;;;6.95;;
40204;SDS011;26963;42.666;23.366;2023-05-10T13:24:49;10.25;;;6.88;;
40204;SDS011;26963;42.666;23.366;2023-05-10T13:27:15;8.93;;;6.65;;
40204;SDS011;26963;42.666;23.366;2023-05-10T13:29:40;10.00;;;6.95;;
40204;SDS011;26963;42.666;23.366;2023-05-10T13:32:06;10.63;;;6.82;;
40204;SDS011;26963;42.666;23.366;2023-05-10T13:34:32;10.77;;;6.75;;
40204;SDS011;26963;42.666;23.366;2023-05-10T13:37:01;9.57;;;6.72;;
40204;SDS011;26963;42.666;23.366;2023-05-10T13:39:26;9.27;;;6.43;;
40204;SDS011;26963;42.666;23.366;2023-05-10T13:41:55;9.75;;;6.75;;
40204;SDS011;26963;42.666;23.366;2023-05-10T13:44:21;11.75;;;7.45;;
40204;SDS011;26963;42.666;23.366;2023-05-10T13:46:47;8.02;;;6.70;;
40204;SDS011;26963;42.666;23.366;2023-05-10T13:49:12;8.27;;;6.60;;
40204;SDS011;26963;42.666;23.366;2023-05-10T13:51:38;10.00;;;7.20;;
40204;SDS011;26963;42.666;23.366;2023-05-10T13:54:03;9.48;;;6.50;;
40204;SDS011;26963;42.666;23.366;2023-05-10T13:56:29;7.57;;;6.38;;
40204;SDS011;26963;42.666;23.366;2023-05-10T13:58:55;9.27;;;6.30;;
40204;SDS011;26963;42.666;23.366;2023-05-10T14:01:25;8.48;;;6.80;;
40204;SDS011;26963;42.666;23.366;2023-05-10T14:03:51;8.82;;;6.88;;
40204;SDS011;26963;42.666;23.366;2023-05-10T14:06:16;9.63;;;6.28;;
40204;SDS011;26963;42.666;23.366;2023-05-10T14:08:42;6.95;;;6.00;;
40204;SDS011;26963;42.666;23.366;2023-05-10T14:11:08;10.18;;;6.53;;
40204;SDS011;26963;42.666;23.366;2023-05-10T14:13:33;10.40;;;6.45;;
40204;SDS011;26963;42.666;23.366;2023-05-10T14:15:59;10.68;;;6.50;;
40204;SDS011;26963;42.666;23.366;2023-05-10T14:18:26;13.27;;;6.70;;
40204;SDS011;26963;42.666;23.366;2023-05-10T14:20:52;9.90;;;6.95;;
40204;SDS011;26963;42.666;23.366;2023-05-10T14:23:17;8.82;;;6.88;;
40204;SDS011;26963;42.666;23.366;2023-05-10T14:25:45;15.15;;;7.03;;
40204;SDS011;26963;42.666;23.366;2023-05-10T14:28:10;13.00;;;8.07;;
40204;SDS011;26963;42.666;23.366;2023-05-10T14:30:37;7.25;;;6.50;;
40204;SDS011;26963;42.666;23.366;2023-05-10T14:33:03;10.52;;;7.03;;
40204;SDS011;26963;42.666;23.366;2023-05-10T14:35:28;9.65;;;6.68;;
40204;SDS011;26963;42.666;23.366;2023-05-10T14:37:56;11.32;;;8.32;;
40204;SDS011;26963;42.666;23.366;2023-05-10T14:40:22;10.13;;;8.00;;
40204;SDS011;26963;42.666;23.366;2023-05-10T14:42:48;10.93;;;7.95;;
40204;SDS011;26963;42.666;23.366;2023-05-10T14:45:15;12.20;;;7.22;;
40204;SDS011;26963;42.666;23.366;2023-05-10T14:47:40;11.10;;;6.95;;
40204;SDS011;26963;42.666;23.366;2023-05-10T14:50:06;10.35;;;7.45;;
40204;SDS011;26963;42.666;23.366;2023-05-10T14:52:32;9.95;;;7.82;;
40204;SDS011;26963;42.666;23.366;2023-05-10T14:55:00;9.43;;;6.85;;
40204;SDS011;26963;42.666;23.366;2023-05-10T14:57:26;13.02;;;7.20;;
40204;SDS011;26963;42.666;23.366;2023-05-10T14:59:54;9.10;;;7.28;;